sensor_id;sensor_type;location;lat;lon;timestamp;temperature;humidity
44843;DHT22;31884;52.538;13.820;2023-01-04T00:00:59;3.10;99.90
44843;DHT22;31884;52.538;13.820;2023-01-04T00:03:24;3.00;99.90
44843;DHT22;31884;52.538;13.820;2023-01-04T00:05:50;2.90;99.90
44843;DHT22;31884;52.538;13.820;2023-01-04T00:08:15;2.80;99.90
44843;DHT22;31884;52.538;13.820;2023-01-04T00:10:41;2.70;99.90
44843;DHT22;31884;52.538;13.820;2023-01-04T00:13:06;2.60;99.90
44843;DHT22;31884;52.538;13.820;2023-01-04T00:15:31;2.50;99.90
44843;DHT22;31884;52.538;13.820;2023-01-04T00:17:57;2.40;99.90
44843;DHT22;31884;52.538;13.820;2023-01-04T00:20:22;2.40;99.90
44843;DHT22;31884;52.538;13.820;2023-01-04T00:22:48;2.30;99.90
44843;DHT22;31884;52.538;13.820;2023-01-04T00:25:13;2.20;99.90
44843;DHT22;31884;52.538;13.820;2023-01-04T00:27:39;2.10;99.90
44843;DHT22;31884;52.538;13.820;2023-01-04T00:30:05;2.10;99.90
44843;DHT22;31884;52.538;13.820;2023-01-04T00:32:30;2.00;99.90
44843;DHT22;31884;52.538;13.820;2023-01-04T00:34:56;1.90;99.90
44843;DHT22;31884;52.538;13.820;2023-01-04T00:37:21;1.90;99.90
44843;DHT22;31884;52.538;13.820;2023-01-04T00:39:46;1.90;99.90
44843;DHT22;31884;52.538;13.820;2023-01-04T00:42:12;1.80;99.90
44843;DHT22;31884;52.538;13.820;2023-01-04T00:44:37;1.90;99.90
44843;DHT22;31884;52.538;13.820;2023-01-04T00:47:03;1.80;99.90
44843;DHT22;31884;52.538;13.820;2023-01-04T00:49:30;1.80;99.90
44843;DHT22;31884;52.538;13.820;2023-01-04T00:51:56;1.80;99.90
44843;DHT22;31884;52.538;13.820;2023-01-04T00:54:21;1.70;99.90
44843;DHT22;31884;52.538;13.820;2023-01-04T00:56:47;1.70;99.90
44843;DHT22;31884;52.538;13.820;2023-01-04T00:59:17;1.70;99.90
44843;DHT22;31884;52.538;13.820;2023-01-04T01:01:43;1.70;99.90
44843;DHT22;31884;52.538;13.820;2023-01-04T01:04:12;1.70;99.90
44843;DHT22;31884;52.538;13.820;2023-01-04T01:06:38;1.80;99.90
44843;DHT22;31884;52.538;13.820;2023-01-04T01:09:03;1.70;99.90
44843;DHT22;31884;52.538;13.820;2023-01-04T01:11:30;1.80;99.90
44843;DHT22;31884;52.538;13.820;2023-01-04T01:13:56;1.80;99.90
44843;DHT22;31884;52.538;13.820;2023-01-04T01:16:23;1.70;99.90
44843;DHT22;31884;52.538;13.820;2023-01-04T01:18:49;1.70;99.90
44843;DHT22;31884;52.538;13.820;2023-01-04T01:21:26;1.80;99.90
44843;DHT22;31884;52.538;13.820;2023-01-04T01:23:53;1.80;99.90
44843;DHT22;31884;52.538;13.820;2023-01-04T01:26:22;1.90;99.90
44843;DHT22;31884;52.538;13.820;2023-01-04T01:28:48;1.90;99.90
44843;DHT22;31884;52.538;13.820;2023-01-04T01:31:16;2.10;99.90
44843;DHT22;31884;52.538;13.820;2023-01-04T01:33:43;2.10;99.90
44843;DHT22;31884;52.538;13.820;2023-01-04T01:36:10;2.20;99.90
44843;DHT22;31884;52.538;13.820;2023-01-04T01:38:36;2.20;99.90
44843;DHT22;31884;52.538;13.820;2023-01-04T01:41:03;2.20;99.90
44843;DHT22;31884;52.538;13.820;2023-01-04T01:43:52;2.30;99.90
44843;DHT22;31884;52.538;13.820;2023-01-04T01:46:27;2.40;99.90
44843;DHT22;31884;52.538;13.820;2023-01-04T01:49:04;2.50;99.90
44843;DHT22;31884;52.538;13.820;2023-01-04T01:51:33;2.60;99.90
44843;DHT22;31884;52.538;13.820;2023-01-04T01:54:03;2.70;99.90
44843;DHT22;31884;52.538;13.820;2023-01-04T01:56:32;2.90;99.90
44843;DHT22;31884;52.538;13.820;2023-01-04T01:59:00;2.90;99.90
44843;DHT22;31884;52.538;13.820;2023-01-04T02:01:26;3.00;99.90
44843;DHT22;31884;52.538;13.820;2023-01-04T02:03:52;3.00;99.90
44843;DHT22;31884;52.538;13.820;2023-01-04T02:06:21;3.00;99.90
44843;DHT22;31884;52.538;13.820;2023-01-04T02:08:48;3.10;99.90
44843;DHT22;31884;52.538;13.820;2023-01-04T02:11:14;3.00;99.90
44843;DHT22;31884;52.538;13.820;2023-01-04T02:13:40;3.10;99.90
44843;DHT22;31884;52.538;13.820;2023-01-04T02:19:26;3.00;99.90
44843;DHT22;31884;52.538;13.820;2023-01-04T02:27:57;3.00;99.90
44843;DHT22;31884;52.538;13.820;2023-01-04T02:33:26;2.90;99.90
44843;DHT22;31884;52.538;13.820;2023-01-04T02:38:46;2.90;99.90
44843;DHT22;31884;52.538;13.820;2023-01-04T02:41:23;2.80;99.90
44843;DHT22;31884;52.538;13.820;2023-01-04T02:46:42;2.80;99.90
44843;DHT22;31884;52.538;13.820;2023-01-04T02:49:09;2.70;99.90
44843;DHT22;31884;52.538;13.820;2023-01-04T02:51:53;2.80;99.90
44843;DHT22;31884;52.538;13.820;2023-01-04T02:54:25;2.70;99.90
44843;DHT22;31884;52.538;13.820;2023-01-04T03:02:50;2.70;99.90
44843;DHT22;31884;52.538;13.820;2023-01-04T03:06:10;2.60;99.90
44843;DHT22;31884;52.538;13.820;2023-01-04T03:09:00;2.60;99.90
44843;DHT22;31884;52.538;13.820;2023-01-04T03:14:25;2.60;99.90
44843;DHT22;31884;52.538;13.820;2023-01-04T03:16:53;2.60;99.90
44843;DHT22;31884;52.538;13.820;2023-01-04T03:19:22;2.70;99.90
44843;DHT22;31884;52.538;13.820;2023-01-04T03:22:07;2.70;99.90
44843;DHT22;31884;52.538;13.820;2023-01-04T03:24:55;2.70;99.90
44843;DHT22;31884;52.538;13.820;2023-01-04T03:27:40;2.70;99.90
44843;DHT22;31884;52.538;13.820;2023-01-04T03:30:27;2.80;99.90
44843;DHT22;31884;52.538;13.820;2023-01-04T03:33:14;2.80;99.90
44843;DHT22;31884;52.538;13.820;2023-01-04T03:36:17;2.90;99.90
44843;DHT22;31884;52.538;13.820;2023-01-04T03:38:46;2.90;99.90
44843;DHT22;31884;52.538;13.820;2023-01-04T03:41:36;2.90;99.90
44843;DHT22;31884;52.538;13.820;2023-01-04T03:44:41;2.90;99.90
44843;DHT22;31884;52.538;13.820;2023-01-04T03:47:40;3.00;99.90
44843;DHT22;31884;52.538;13.820;2023-01-04T03:50:34;3.00;99.90
44843;DHT22;31884;52.538;13.820;2023-01-04T03:53:04;3.00;99.90
44843;DHT22;31884;52.538;13.820;2023-01-04T03:55:30;3.00;99.90
44843;DHT22;31884;52.538;13.820;2023-01-04T03:57:57;3.00;99.90
44843;DHT22;31884;52.538;13.820;2023-01-04T04:00:23;3.10;99.90
44843;DHT22;31884;52.538;13.820;2023-01-04T04:02:49;3.10;99.90
44843;DHT22;31884;52.538;13.820;2023-01-04T04:05:18;3.20;99.90
44843;DHT22;31884;52.538;13.820;2023-01-04T04:08:04;3.20;99.90
44843;DHT22;31884;52.538;13.820;2023-01-04T04:10:48;3.20;99.90
44843;DHT22;31884;52.538;13.820;2023-01-04T04:13:14;3.30;99.90
44843;DHT22;31884;52.538;13.820;2023-01-04T04:15:40;3.30;99.90
44843;DHT22;31884;52.538;13.820;2023-01-04T04:18:05;3.30;99.90
44843;DHT22;31884;52.538;13.820;2023-01-04T04:20:31;3.30;99.90
44843;DHT22;31884;52.538;13.820;2023-01-04T04:22:56;3.40;99.90
44843;DHT22;31884;52.538;13.820;2023-01-04T04:25:22;3.40;99.90
44843;DHT22;31884;52.538;13.820;2023-01-04T04:27:47;3.40;99.90
44843;DHT22;31884;52.538;13.820;2023-01-04T04:30:13;3.40;99.90
44843;DHT22;31884;52.538;13.820;2023-01-04T04:32:38;3.40;99.90
44843;DHT22;31884;52.538;13.820;2023-01-04T04:35:04;3.40;99.90
44843;DHT22;31884;52.538;13.820;2023-01-04T04:37:30;3.40;99.90
44843;DHT22;31884;52.538;13.820;2023-01-04T04:39:57;3.40;99.90
44843;DHT22;31884;52.538;13.820;2023-01-04T04:42:22;3.40;99.90
44843;DHT22;31884;52.538;13.820;2023-01-04T04:44:48;3.40;99.90
44843;DHT22;31884;52.538;13.820;2023-01-04T04:47:13;3.40;99.90
44843;DHT22;31884;52.538;13.820;2023-01-04T04:49:39;3.50;99.90
44843;DHT22;31884;52.538;13.820;2023-01-04T04:52:04;3.50;99.90
44843;DHT22;31884;52.538;13.820;2023-01-04T04:54:29;3.50;99.90
44843;DHT22;31884;52.538;13.820;2023-01-04T04:56:55;3.50;99.90
44843;DHT22;31884;52.538;13.820;2023-01-04T04:59:20;3.50;99.90
44843;DHT22;31884;52.538;13.820;2023-01-04T05:01:46;3.50;99.90
44843;DHT22;31884;52.538;13.820;2023-01-04T05:04:12;3.50;99.90
44843;DHT22;31884;52.538;13.820;2023-01-04T05:06:48;3.50;99.90
44843;DHT22;31884;52.538;13.820;2023-01-04T05:09:13;3.50;99.90
44843;DHT22;31884;52.538;13.820;2023-01-04T05:11:39;3.50;99.90
44843;DHT22;31884;52.538;13.820;2023-01-04T05:14:24;3.40;99.90
44843;DHT22;31884;52.538;13.820;2023-01-04T05:16:49;3.50;99.90
44843;DHT22;31884;52.538;13.820;2023-01-04T05:19:15;3.50;99.90
44843;DHT22;31884;52.538;13.820;2023-01-04T05:21:40;3.50;99.90
44843;DHT22;31884;52.538;13.820;2023-01-04T05:24:07;3.50;99.90
44843;DHT22;31884;52.538;13.820;2023-01-04T05:26:34;3.50;99.90
44843;DHT22;31884;52.538;13.820;2023-01-04T05:29:00;3.60;99.90
44843;DHT22;31884;52.538;13.820;2023-01-04T05:31:25;3.60;99.90
44843;DHT22;31884;52.538;13.820;2023-01-04T05:33:51;3.60;99.90
44843;DHT22;31884;52.538;13.820;2023-01-04T05:36:16;3.60;99.90
44843;DHT22;31884;52.538;13.820;2023-01-04T05:38:42;3.70;99.90
44843;DHT22;31884;52.538;13.820;2023-01-04T05:41:07;3.70;99.90
44843;DHT22;31884;52.538;13.820;2023-01-04T05:43:53;3.70;99.90
44843;DHT22;31884;52.538;13.820;2023-01-04T05:46:18;3.80;99.90
44843;DHT22;31884;52.538;13.820;2023-01-04T05:48:44;3.80;99.90
44843;DHT22;31884;52.538;13.820;2023-01-04T05:51:09;3.80;99.90
44843;DHT22;31884;52.538;13.820;2023-01-04T05:53:35;3.90;99.90
44843;DHT22;31884;52.538;13.820;2023-01-04T05:56:00;3.90;99.90
44843;DHT22;31884;52.538;13.820;2023-01-04T05:58:26;4.00;99.90
44843;DHT22;31884;52.538;13.820;2023-01-04T06:00:51;4.00;99.90
44843;DHT22;31884;52.538;13.820;2023-01-04T06:03:18;4.10;99.90
44843;DHT22;31884;52.538;13.820;2023-01-04T06:05:50;4.10;99.90
44843;DHT22;31884;52.538;13.820;2023-01-04T06:08:16;4.10;99.90
44843;DHT22;31884;52.538;13.820;2023-01-04T06:10:42;4.20;99.90
44843;DHT22;31884;52.538;13.820;2023-01-04T06:13:07;4.20;99.90
44843;DHT22;31884;52.538;13.820;2023-01-04T06:15:33;4.20;99.90
44843;DHT22;31884;52.538;13.820;2023-01-04T06:17:58;4.20;99.90
44843;DHT22;31884;52.538;13.820;2023-01-04T06:20:24;4.20;99.90
44843;DHT22;31884;52.538;13.820;2023-01-04T06:22:49;4.30;99.90
44843;DHT22;31884;52.538;13.820;2023-01-04T06:32:37;4.30;99.90
44843;DHT22;31884;52.538;13.820;2023-01-04T06:35:03;4.40;99.90
44843;DHT22;31884;52.538;13.820;2023-01-04T06:37:28;4.40;99.90
44843;DHT22;31884;52.538;13.820;2023-01-04T06:39:54;4.40;99.90
44843;DHT22;31884;52.538;13.820;2023-01-04T06:42:19;4.50;99.90
44843;DHT22;31884;52.538;13.820;2023-01-04T06:45:04;4.50;99.90
44843;DHT22;31884;52.538;13.820;2023-01-04T06:47:29;4.60;99.90
44843;DHT22;31884;52.538;13.820;2023-01-04T06:49:55;4.60;99.90
44843;DHT22;31884;52.538;13.820;2023-01-04T06:52:20;4.70;99.90
44843;DHT22;31884;52.538;13.820;2023-01-04T06:54:46;4.70;99.90
44843;DHT22;31884;52.538;13.820;2023-01-04T06:57:12;4.70;99.90
44843;DHT22;31884;52.538;13.820;2023-01-04T06:59:37;4.70;99.90
44843;DHT22;31884;52.538;13.820;2023-01-04T07:02:03;4.80;99.90
44843;DHT22;31884;52.538;13.820;2023-01-04T07:04:28;4.80;99.90
44843;DHT22;31884;52.538;13.820;2023-01-04T07:06:54;4.80;99.90
44843;DHT22;31884;52.538;13.820;2023-01-04T07:09:19;4.90;99.90
44843;DHT22;31884;52.538;13.820;2023-01-04T07:11:45;4.90;99.90
44843;DHT22;31884;52.538;13.820;2023-01-04T07:14:10;4.90;99.90
44843;DHT22;31884;52.538;13.820;2023-01-04T07:16:36;4.90;99.90
44843;DHT22;31884;52.538;13.820;2023-01-04T07:19:01;5.00;99.90
44843;DHT22;31884;52.538;13.820;2023-01-04T07:21:27;5.00;99.90
44843;DHT22;31884;52.538;13.820;2023-01-04T07:23:54;5.00;99.90
44843;DHT22;31884;52.538;13.820;2023-01-04T07:26:19;5.10;99.90
44843;DHT22;31884;52.538;13.820;2023-01-04T07:28:45;5.10;99.90
44843;DHT22;31884;52.538;13.820;2023-01-04T07:31:29;5.10;99.90
44843;DHT22;31884;52.538;13.820;2023-01-04T07:33:54;5.20;99.90
44843;DHT22;31884;52.538;13.820;2023-01-04T07:36:20;5.20;99.90
44843;DHT22;31884;52.538;13.820;2023-01-04T07:38:45;5.30;99.90
44843;DHT22;31884;52.538;13.820;2023-01-04T07:41:11;5.30;99.90
44843;DHT22;31884;52.538;13.820;2023-01-04T07:43:36;5.30;99.90
44843;DHT22;31884;52.538;13.820;2023-01-04T07:46:02;5.50;99.90
44843;DHT22;31884;52.538;13.820;2023-01-04T07:48:27;5.50;99.90
44843;DHT22;31884;52.538;13.820;2023-01-04T07:50:54;5.60;99.90
44843;DHT22;31884;52.538;13.820;2023-01-04T07:53:19;5.80;99.90
44843;DHT22;31884;52.538;13.820;2023-01-04T07:55:45;5.80;99.90
44843;DHT22;31884;52.538;13.820;2023-01-04T07:58:10;5.90;99.90
44843;DHT22;31884;52.538;13.820;2023-01-04T08:00:36;6.00;99.90
44843;DHT22;31884;52.538;13.820;2023-01-04T08:03:01;6.10;99.90
44843;DHT22;31884;52.538;13.820;2023-01-04T08:05:27;6.10;99.90
44843;DHT22;31884;52.538;13.820;2023-01-04T08:07:55;6.10;99.90
44843;DHT22;31884;52.538;13.820;2023-01-04T08:10:21;6.20;99.90
44843;DHT22;31884;52.538;13.820;2023-01-04T08:12:47;6.20;99.90
44843;DHT22;31884;52.538;13.820;2023-01-04T08:15:12;6.20;99.90
44843;DHT22;31884;52.538;13.820;2023-01-04T08:17:39;6.20;99.90
44843;DHT22;31884;52.538;13.820;2023-01-04T08:20:05;6.30;99.90
44843;DHT22;31884;52.538;13.820;2023-01-04T08:22:31;6.20;99.90
44843;DHT22;31884;52.538;13.820;2023-01-04T08:24:57;6.30;99.90
44843;DHT22;31884;52.538;13.820;2023-01-04T08:27:22;6.30;99.90
44843;DHT22;31884;52.538;13.820;2023-01-04T08:29:48;6.30;99.90
44843;DHT22;31884;52.538;13.820;2023-01-04T08:32:13;6.40;99.90
44843;DHT22;31884;52.538;13.820;2023-01-04T08:34:38;6.40;99.90
44843;DHT22;31884;52.538;13.820;2023-01-04T08:37:04;6.40;99.90
44843;DHT22;31884;52.538;13.820;2023-01-04T08:39:29;6.40;99.90
44843;DHT22;31884;52.538;13.820;2023-01-04T08:41:59;6.50;99.90
44843;DHT22;31884;52.538;13.820;2023-01-04T08:44:25;6.50;99.90
44843;DHT22;31884;52.538;13.820;2023-01-04T08:46:52;6.50;99.90
44843;DHT22;31884;52.538;13.820;2023-01-04T08:49:18;6.60;99.90
44843;DHT22;31884;52.538;13.820;2023-01-04T08:51:44;6.60;99.90
44843;DHT22;31884;52.538;13.820;2023-01-04T08:54:10;6.70;99.90
44843;DHT22;31884;52.538;13.820;2023-01-04T08:56:36;6.70;99.90
44843;DHT22;31884;52.538;13.820;2023-01-04T08:59:01;6.70;99.90
44843;DHT22;31884;52.538;13.820;2023-01-04T09:01:27;6.70;99.90
44843;DHT22;31884;52.538;13.820;2023-01-04T09:03:54;6.70;99.90
44843;DHT22;31884;52.538;13.820;2023-01-04T09:06:20;6.80;99.90
44843;DHT22;31884;52.538;13.820;2023-01-04T09:08:45;6.80;99.90
44843;DHT22;31884;52.538;13.820;2023-01-04T09:11:16;6.80;99.90
44843;DHT22;31884;52.538;13.820;2023-01-04T09:13:43;6.80;99.90
44843;DHT22;31884;52.538;13.820;2023-01-04T09:16:12;6.80;99.90
44843;DHT22;31884;52.538;13.820;2023-01-04T09:18:37;6.90;99.90
44843;DHT22;31884;52.538;13.820;2023-01-04T09:21:08;6.90;99.90
44843;DHT22;31884;52.538;13.820;2023-01-04T09:23:35;6.90;99.90
44843;DHT22;31884;52.538;13.820;2023-01-04T09:26:13;6.90;99.90
44843;DHT22;31884;52.538;13.820;2023-01-04T09:28:39;6.90;99.90
44843;DHT22;31884;52.538;13.820;2023-01-04T09:31:10;6.90;99.90
44843;DHT22;31884;52.538;13.820;2023-01-04T09:33:36;6.90;99.90
44843;DHT22;31884;52.538;13.820;2023-01-04T09:36:03;6.90;99.90
44843;DHT22;31884;52.538;13.820;2023-01-04T09:38:29;6.90;99.90
44843;DHT22;31884;52.538;13.820;2023-01-04T09:43:50;6.90;99.90
44843;DHT22;31884;52.538;13.820;2023-01-04T09:48:47;7.00;99.90
44843;DHT22;31884;52.538;13.820;2023-01-04T09:51:16;7.00;99.90
44843;DHT22;31884;52.538;13.820;2023-01-04T09:53:54;7.10;99.90
44843;DHT22;31884;52.538;13.820;2023-01-04T09:56:28;7.10;99.90
44843;DHT22;31884;52.538;13.820;2023-01-04T09:58:55;7.10;99.90
44843;DHT22;31884;52.538;13.820;2023-01-04T10:01:28;7.10;99.90
44843;DHT22;31884;52.538;13.820;2023-01-04T10:04:23;7.10;99.90
44843;DHT22;31884;52.538;13.820;2023-01-04T10:06:51;7.20;99.90
44843;DHT22;31884;52.538;13.820;2023-01-04T10:09:17;7.20;99.90
44843;DHT22;31884;52.538;13.820;2023-01-04T10:14:51;7.20;99.90
44843;DHT22;31884;52.538;13.820;2023-01-04T10:23:01;7.30;99.90
44843;DHT22;31884;52.538;13.820;2023-01-04T10:25:53;7.30;99.90
44843;DHT22;31884;52.538;13.820;2023-01-04T10:28:45;7.30;99.90
44843;DHT22;31884;52.538;13.820;2023-01-04T10:31:19;7.30;99.90
44843;DHT22;31884;52.538;13.820;2023-01-04T10:33:48;7.30;99.90
44843;DHT22;31884;52.538;13.820;2023-01-04T10:36:25;7.30;99.90
44843;DHT22;31884;52.538;13.820;2023-01-04T10:39:01;7.30;99.90
44843;DHT22;31884;52.538;13.820;2023-01-04T10:41:32;7.30;99.90
44843;DHT22;31884;52.538;13.820;2023-01-04T10:44:22;7.30;99.90
44843;DHT22;31884;52.538;13.820;2023-01-04T10:46:56;7.30;99.90
44843;DHT22;31884;52.538;13.820;2023-01-04T10:49:27;7.30;99.90
44843;DHT22;31884;52.538;13.820;2023-01-04T10:52:00;7.30;99.90
44843;DHT22;31884;52.538;13.820;2023-01-04T10:54:44;7.30;99.90
44843;DHT22;31884;52.538;13.820;2023-01-04T10:57:22;7.30;99.90
44843;DHT22;31884;52.538;13.820;2023-01-04T10:59:57;7.30;99.90
44843;DHT22;31884;52.538;13.820;2023-01-04T11:02:40;7.40;99.90
44843;DHT22;31884;52.538;13.820;2023-01-04T11:08:08;7.40;99.90
44843;DHT22;31884;52.538;13.820;2023-01-04T11:10:39;7.40;99.90
44843;DHT22;31884;52.538;13.820;2023-01-04T11:13:06;7.40;99.90
44843;DHT22;31884;52.538;13.820;2023-01-04T11:15:32;7.50;99.90
44843;DHT22;31884;52.538;13.820;2023-01-04T11:17:59;7.50;99.90
44843;DHT22;31884;52.538;13.820;2023-01-04T11:20:28;7.40;99.90
44843;DHT22;31884;52.538;13.820;2023-01-04T11:25:21;7.40;99.90
44843;DHT22;31884;52.538;13.820;2023-01-04T11:27:51;7.50;99.90
44843;DHT22;31884;52.538;13.820;2023-01-04T11:30:22;7.50;99.90
44843;DHT22;31884;52.538;13.820;2023-01-04T11:32:59;7.50;99.90
44843;DHT22;31884;52.538;13.820;2023-01-04T11:35:45;7.50;99.90
44843;DHT22;31884;52.538;13.820;2023-01-04T11:38:23;7.60;99.90
44843;DHT22;31884;52.538;13.820;2023-01-04T11:41:04;7.50;99.90
44843;DHT22;31884;52.538;13.820;2023-01-04T11:43:38;7.60;99.90
44843;DHT22;31884;52.538;13.820;2023-01-04T11:46:07;7.60;99.90
44843;DHT22;31884;52.538;13.820;2023-01-04T11:48:46;7.60;99.90
44843;DHT22;31884;52.538;13.820;2023-01-04T11:54:16;7.60;99.90
44843;DHT22;31884;52.538;13.820;2023-01-04T11:57:04;7.70;99.90
44843;DHT22;31884;52.538;13.820;2023-01-04T11:59:32;7.70;99.90
44843;DHT22;31884;52.538;13.820;2023-01-04T12:02:23;7.70;99.90
44843;DHT22;31884;52.538;13.820;2023-01-04T12:04:51;7.70;99.90
44843;DHT22;31884;52.538;13.820;2023-01-04T12:07:28;7.70;99.90
44843;DHT22;31884;52.538;13.820;2023-01-04T12:09:55;7.80;99.90
44843;DHT22;31884;52.538;13.820;2023-01-04T12:12:22;7.80;99.90
44843;DHT22;31884;52.538;13.820;2023-01-04T12:14:50;7.80;99.90
44843;DHT22;31884;52.538;13.820;2023-01-04T12:17:24;7.80;99.90
44843;DHT22;31884;52.538;13.820;2023-01-04T12:19:52;7.80;99.90
44843;DHT22;31884;52.538;13.820;2023-01-04T12:22:37;7.90;99.90
44843;DHT22;31884;52.538;13.820;2023-01-04T12:25:05;7.80;99.90
44843;DHT22;31884;52.538;13.820;2023-01-04T12:27:32;7.90;99.90
44843;DHT22;31884;52.538;13.820;2023-01-04T12:30:05;7.90;99.90
44843;DHT22;31884;52.538;13.820;2023-01-04T12:34:57;7.90;99.90
44843;DHT22;31884;52.538;13.820;2023-01-04T12:37:44;8.00;99.90
44843;DHT22;31884;52.538;13.820;2023-01-04T12:45:41;8.00;99.90
44843;DHT22;31884;52.538;13.820;2023-01-04T12:51:22;8.00;99.90
44843;DHT22;31884;52.538;13.820;2023-01-04T12:53:53;8.00;99.90
44843;DHT22;31884;52.538;13.820;2023-01-04T12:56:19;8.00;99.90
44843;DHT22;31884;52.538;13.820;2023-01-04T12:59:04;8.00;99.90
44843;DHT22;31884;52.538;13.820;2023-01-04T13:01:30;8.00;99.90
44843;DHT22;31884;52.538;13.820;2023-01-04T13:04:02;8.00;99.90
44843;DHT22;31884;52.538;13.820;2023-01-04T13:06:28;8.00;99.90
44843;DHT22;31884;52.538;13.820;2023-01-04T13:08:55;8.00;99.90
44843;DHT22;31884;52.538;13.820;2023-01-04T13:11:37;8.10;99.90
44843;DHT22;31884;52.538;13.820;2023-01-04T13:14:08;8.10;99.90
44843;DHT22;31884;52.538;13.820;2023-01-04T13:17:00;8.10;99.90
44843;DHT22;31884;52.538;13.820;2023-01-04T13:19:29;8.10;99.90
44843;DHT22;31884;52.538;13.820;2023-01-04T13:21:55;8.10;99.90
44843;DHT22;31884;52.538;13.820;2023-01-04T13:26:47;8.10;99.90
44843;DHT22;31884;52.538;13.820;2023-01-04T13:29:22;8.10;99.90
44843;DHT22;31884;52.538;13.820;2023-01-04T13:31:58;8.10;99.90
44843;DHT22;31884;52.538;13.820;2023-01-04T13:39:49;8.10;99.90
44843;DHT22;31884;52.538;13.820;2023-01-04T13:42:26;8.10;99.90
44843;DHT22;31884;52.538;13.820;2023-01-04T13:47:21;8.10;99.90
44843;DHT22;31884;52.538;13.820;2023-01-04T13:49:46;8.20;99.90
44843;DHT22;31884;52.538;13.820;2023-01-04T13:52:28;8.20;99.90
44843;DHT22;31884;52.538;13.820;2023-01-04T13:57:37;8.20;99.90
44843;DHT22;31884;52.538;13.820;2023-01-04T14:00:06;8.20;99.90
44843;DHT22;31884;52.538;13.820;2023-01-04T14:02:32;8.20;99.90
44843;DHT22;31884;52.538;13.820;2023-01-04T14:05:00;8.20;99.90
44843;DHT22;31884;52.538;13.820;2023-01-04T14:07:25;8.20;99.90
44843;DHT22;31884;52.538;13.820;2023-01-04T14:09:56;8.20;99.90
44843;DHT22;31884;52.538;13.820;2023-01-04T14:12:23;8.20;99.90
44843;DHT22;31884;52.538;13.820;2023-01-04T14:14:57;8.20;99.90
44843;DHT22;31884;52.538;13.820;2023-01-04T14:22:56;8.10;99.90
44843;DHT22;31884;52.538;13.820;2023-01-04T14:33:29;8.30;99.90
44843;DHT22;31884;52.538;13.820;2023-01-04T14:38:36;8.30;99.90
44843;DHT22;31884;52.538;13.820;2023-01-04T14:41:17;8.30;99.90
44843;DHT22;31884;52.538;13.820;2023-01-04T14:43:45;8.30;99.90
44843;DHT22;31884;52.538;13.820;2023-01-04T14:46:10;8.30;99.90
44843;DHT22;31884;52.538;13.820;2023-01-04T14:48:36;8.30;99.90
44843;DHT22;31884;52.538;13.820;2023-01-04T14:51:02;8.30;99.90
44843;DHT22;31884;52.538;13.820;2023-01-04T14:53:29;8.30;99.90
44843;DHT22;31884;52.538;13.820;2023-01-04T14:55:55;8.30;99.90
44843;DHT22;31884;52.538;13.820;2023-01-04T14:58:20;8.40;99.90
44843;DHT22;31884;52.538;13.820;2023-01-04T15:00:46;8.40;99.90
44843;DHT22;31884;52.538;13.820;2023-01-04T15:03:11;8.40;99.90
44843;DHT22;31884;52.538;13.820;2023-01-04T15:05:45;8.40;99.90
44843;DHT22;31884;52.538;13.820;2023-01-04T15:08:11;8.40;99.90
44843;DHT22;31884;52.538;13.820;2023-01-04T15:10:37;8.40;99.90
44843;DHT22;31884;52.538;13.820;2023-01-04T15:13:02;8.40;99.90
44843;DHT22;31884;52.538;13.820;2023-01-04T15:15:29;8.40;99.90
44843;DHT22;31884;52.538;13.820;2023-01-04T15:17:57;8.50;99.90
44843;DHT22;31884;52.538;13.820;2023-01-04T15:20:22;8.50;99.90
44843;DHT22;31884;52.538;13.820;2023-01-04T15:22:48;8.50;99.90
44843;DHT22;31884;52.538;13.820;2023-01-04T15:25:13;8.50;99.90
44843;DHT22;31884;52.538;13.820;2023-01-04T15:27:39;8.50;99.90
44843;DHT22;31884;52.538;13.820;2023-01-04T15:30:05;8.50;99.90
44843;DHT22;31884;52.538;13.820;2023-01-04T15:32:31;8.50;99.90
44843;DHT22;31884;52.538;13.820;2023-01-04T15:34:58;8.60;99.90
44843;DHT22;31884;52.538;13.820;2023-01-04T15:37:23;8.60;99.90
44843;DHT22;31884;52.538;13.820;2023-01-04T15:39:49;8.60;99.90
44843;DHT22;31884;52.538;13.820;2023-01-04T15:42:14;8.60;99.90
44843;DHT22;31884;52.538;13.820;2023-01-04T15:44:59;8.60;99.90
44843;DHT22;31884;52.538;13.820;2023-01-04T15:47:24;8.70;99.90
44843;DHT22;31884;52.538;13.820;2023-01-04T15:49:52;8.70;99.90
44843;DHT22;31884;52.538;13.820;2023-01-04T15:52:18;8.70;99.90
44843;DHT22;31884;52.538;13.820;2023-01-04T15:54:43;8.70;99.90
44843;DHT22;31884;52.538;13.820;2023-01-04T15:57:09;8.70;99.90
44843;DHT22;31884;52.538;13.820;2023-01-04T15:59:34;8.70;99.90
44843;DHT22;31884;52.538;13.820;2023-01-04T16:02:00;8.70;99.90
44843;DHT22;31884;52.538;13.820;2023-01-04T16:04:25;8.70;99.90
44843;DHT22;31884;52.538;13.820;2023-01-04T16:06:51;8.80;99.90
44843;DHT22;31884;52.538;13.820;2023-01-04T16:09:16;8.80;99.90
44843;DHT22;31884;52.538;13.820;2023-01-04T16:11:42;8.80;99.90
44843;DHT22;31884;52.538;13.820;2023-01-04T16:14:26;8.80;99.90
44843;DHT22;31884;52.538;13.820;2023-01-04T16:16:52;8.80;99.90
44843;DHT22;31884;52.538;13.820;2023-01-04T16:19:17;8.80;99.90
44843;DHT22;31884;52.538;13.820;2023-01-04T16:21:42;8.80;99.90
44843;DHT22;31884;52.538;13.820;2023-01-04T16:24:09;8.80;99.90
44843;DHT22;31884;52.538;13.820;2023-01-04T16:26:35;8.80;99.90
44843;DHT22;31884;52.538;13.820;2023-01-04T16:29:01;8.80;99.90
44843;DHT22;31884;52.538;13.820;2023-01-04T16:31:34;8.90;99.90
44843;DHT22;31884;52.538;13.820;2023-01-04T16:34:01;8.90;99.90
44843;DHT22;31884;52.538;13.820;2023-01-04T16:36:27;8.90;99.90
44843;DHT22;31884;52.538;13.820;2023-01-04T16:38:52;8.90;99.90
44843;DHT22;31884;52.538;13.820;2023-01-04T16:41:19;8.90;99.90
44843;DHT22;31884;52.538;13.820;2023-01-04T16:43:46;8.90;99.90
44843;DHT22;31884;52.538;13.820;2023-01-04T16:48:41;9.00;99.90
44843;DHT22;31884;52.538;13.820;2023-01-04T16:51:07;8.90;99.90
44843;DHT22;31884;52.538;13.820;2023-01-04T16:53:34;9.00;99.90
44843;DHT22;31884;52.538;13.820;2023-01-04T16:56:02;9.00;99.90
44843;DHT22;31884;52.538;13.820;2023-01-04T16:58:29;9.00;99.90
44843;DHT22;31884;52.538;13.820;2023-01-04T17:00:54;8.90;99.90
44843;DHT22;31884;52.538;13.820;2023-01-04T17:03:20;8.90;99.90
44843;DHT22;31884;52.538;13.820;2023-01-04T17:05:45;8.90;99.90
44843;DHT22;31884;52.538;13.820;2023-01-04T17:08:11;8.90;99.90
44843;DHT22;31884;52.538;13.820;2023-01-04T17:10:36;8.90;99.90
44843;DHT22;31884;52.538;13.820;2023-01-04T17:13:02;8.90;99.90
44843;DHT22;31884;52.538;13.820;2023-01-04T17:15:27;8.90;99.90
44843;DHT22;31884;52.538;13.820;2023-01-04T17:17:53;8.80;99.90
44843;DHT22;31884;52.538;13.820;2023-01-04T17:20:18;8.90;99.90
44843;DHT22;31884;52.538;13.820;2023-01-04T17:22:44;8.90;99.90